Mykonos, Greece
Current Conditions -  °F | °C
As of 8:50 PM on Wednesday 26 Nov 2014 (Local Time) from LGMK Reporting Station
Broken Clouds Broken Clouds  
Wind Chill: 52°   Ceiling: 7000
Heat Index: 52°   Visibility: 6mi
Dew Point: 41°   Wind: 13mph
Humidity: 67%   Direction: 10°N
Pressure: 30.09"   Gusts: NA
Location:  38.03°N, 25.36°E
Report Text: LGMK 261750Z 01011KT 9999 SCT018 BKN070 11/05 Q1019
Loading
Personal Weather Stations






























Interactive Weather Map New forecast layout! Learn more

10-Day Weather Forecast

Advertisements
Track Severe Weather on mobile